createdAt,value
2018-11-05T00:00:26.967Z,12.70
2018-11-05T00:05:30.687Z,12.60
2018-11-05T00:10:34.410Z,12.70
2018-11-05T00:15:38.134Z,12.70
2018-11-05T00:20:41.851Z,12.70
2018-11-05T00:25:45.594Z,12.70
2018-11-05T00:30:49.235Z,12.70
2018-11-05T00:35:52.911Z,12.60
2018-11-05T00:40:56.571Z,12.70
2018-11-05T00:46:00.256Z,12.70
2018-11-05T00:51:03.987Z,12.70
2018-11-05T00:56:07.683Z,12.70
2018-11-05T01:01:11.334Z,12.70
2018-11-05T01:06:14.978Z,12.60
2018-11-05T01:11:18.598Z,12.60
2018-11-05T01:16:22.221Z,12.70
2018-11-05T01:21:25.843Z,12.60
2018-11-05T01:26:29.500Z,12.70
2018-11-05T01:31:33.152Z,12.60
2018-11-05T01:36:36.795Z,12.60
2018-11-05T01:41:40.411Z,12.60
2018-11-05T01:46:44.073Z,12.70
2018-11-05T01:51:47.706Z,12.70
2018-11-05T01:56:51.376Z,12.70
2018-11-05T02:01:55.022Z,12.70
2018-11-05T02:06:58.741Z,12.70
2018-11-05T02:12:02.373Z,12.70
2018-11-05T02:17:06.091Z,12.70
2018-11-05T02:22:09.825Z,12.70
2018-11-05T02:27:13.548Z,12.70
2018-11-05T02:32:17.173Z,12.80
2018-11-05T02:37:20.835Z,12.70
2018-11-05T02:42:24.572Z,12.80
2018-11-05T02:47:28.211Z,12.80
2018-11-05T02:52:31.848Z,12.80
2018-11-05T02:57:35.732Z,12.80
2018-11-05T03:02:39.449Z,12.70
2018-11-05T03:07:43.883Z,12.70
2018-11-05T03:12:48.127Z,12.80
2018-11-05T03:17:51.831Z,12.70
2018-11-05T03:22:55.448Z,12.80
2018-11-05T03:27:59.134Z,12.70
2018-11-05T03:33:02.768Z,12.70
2018-11-05T03:38:06.412Z,12.70
2018-11-05T03:43:10.135Z,12.70
2018-11-05T03:48:13.772Z,12.70
2018-11-05T03:53:17.462Z,12.70
2018-11-05T03:58:21.095Z,12.70
2018-11-05T04:03:24.754Z,12.70
2018-11-05T04:08:28.340Z,12.70
2018-11-05T04:13:32.131Z,12.80
2018-11-05T04:18:35.922Z,12.70
2018-11-05T04:23:39.580Z,12.70
2018-11-05T04:28:43.212Z,12.70
2018-11-05T04:33:46.929Z,12.60
2018-11-05T04:38:50.548Z,12.60
2018-11-05T04:43:54.187Z,12.60
2018-11-05T04:48:57.876Z,12.60
2018-11-05T04:54:01.528Z,12.60
2018-11-05T04:59:06.161Z,12.60
2018-11-05T05:04:09.841Z,12.60
2018-11-05T05:09:13.588Z,12.50
2018-11-05T05:14:17.204Z,12.60
2018-11-05T05:19:20.849Z,12.60
2018-11-05T05:24:24.543Z,12.60
2018-11-05T05:29:28.180Z,12.60
2018-11-05T05:34:31.807Z,12.50
2018-11-05T05:39:35.444Z,12.60
2018-11-05T05:44:39.194Z,12.60
2018-11-05T05:49:42.840Z,12.60
2018-11-05T05:54:46.551Z,12.60
2018-11-05T05:59:50.228Z,12.50
2018-11-05T06:04:53.812Z,12.50
2018-11-05T06:09:57.448Z,12.50
2018-11-05T06:15:01.101Z,12.50
2018-11-05T06:20:05.959Z,12.50
2018-11-05T06:25:09.589Z,12.60
2018-11-05T06:30:15.560Z,12.60
2018-11-05T06:35:19.734Z,12.50
2018-11-05T06:40:23.323Z,12.50
2018-11-05T06:45:26.997Z,12.50
2018-11-05T06:50:30.609Z,12.50
2018-11-05T06:55:34.316Z,12.60
2018-11-05T07:00:37.955Z,12.60
2018-11-05T07:05:42.509Z,12.60
2018-11-05T07:10:46.986Z,12.60
2018-11-05T07:15:50.831Z,12.60
2018-11-05T07:20:54.480Z,12.60
2018-11-05T07:25:58.170Z,12.50
2018-11-05T07:31:01.814Z,12.60
2018-11-05T07:36:05.503Z,12.60
2018-11-05T07:41:09.145Z,12.70
2018-11-05T07:46:12.750Z,12.60
2018-11-05T07:51:16.408Z,12.60
2018-11-05T07:56:20.108Z,12.50
2018-11-05T08:01:23.708Z,12.60
2018-11-05T08:06:27.356Z,12.60
2018-11-05T08:11:30.983Z,12.70
2018-11-05T08:16:34.889Z,12.80
2018-11-05T08:21:38.537Z,12.80
2018-11-05T08:26:42.174Z,12.70
2018-11-05T08:31:45.825Z,12.80
2018-11-05T08:36:49.438Z,12.90
2018-11-05T08:41:53.160Z,13.10
2018-11-05T08:46:56.882Z,13.20
2018-11-05T08:52:00.435Z,13.10
2018-11-05T08:57:04.096Z,13.40
2018-11-05T09:02:07.736Z,13.40
2018-11-05T09:07:11.364Z,13.70
2018-11-05T09:12:15.059Z,14.10
2018-11-05T09:17:18.674Z,13.80
2018-11-05T09:22:22.347Z,13.50
2018-11-05T09:27:26.012Z,13.80
2018-11-05T09:32:29.750Z,14.00
2018-11-05T09:37:33.460Z,14.40
2018-11-05T09:42:37.396Z,14.20
2018-11-05T09:47:41.657Z,13.90
2018-11-05T09:52:45.336Z,13.80
2018-11-05T09:57:48.946Z,13.80
2018-11-05T10:03:00.900Z,14.20
2018-11-05T10:08:04.451Z,14.60
2018-11-05T10:13:08.105Z,14.70
2018-11-05T10:18:11.719Z,15.50
2018-11-05T10:23:15.343Z,16.10
2018-11-05T10:28:19.228Z,16.50
2018-11-05T10:33:23.248Z,17.80
2018-11-05T10:38:27.369Z,18.80
2018-11-05T10:43:31.028Z,17.00
2018-11-05T10:48:34.763Z,16.20
2018-11-05T10:53:38.382Z,16.30
2018-11-05T10:58:42.028Z,17.00
2018-11-05T11:03:51.003Z,16.80
2018-11-05T11:08:54.609Z,16.50
2018-11-05T11:13:58.267Z,16.20
2018-11-05T11:19:01.902Z,16.80
2018-11-05T11:24:05.592Z,16.90
2018-11-05T11:29:11.703Z,16.70
2018-11-05T11:34:15.527Z,16.40
2018-11-05T11:39:19.222Z,16.00
2018-11-05T11:44:23.003Z,15.80
2018-11-05T11:49:26.540Z,15.70
2018-11-05T11:54:30.259Z,15.90
2018-11-05T11:59:33.983Z,16.30
2018-11-05T12:04:37.631Z,17.20
2018-11-05T12:09:41.258Z,17.80
2018-11-05T12:14:45.091Z,18.00
2018-11-05T12:19:48.580Z,18.00
2018-11-05T12:24:52.308Z,18.00
2018-11-05T12:29:55.920Z,17.90
2018-11-05T12:34:59.602Z,17.50
2018-11-05T12:40:03.276Z,17.30
2018-11-05T12:45:07.690Z,17.00
2018-11-05T12:50:15.807Z,16.80
2018-11-05T12:55:19.739Z,16.90
2018-11-05T13:00:25.287Z,16.80
2018-11-05T13:05:30.134Z,16.70
2018-11-05T13:10:33.755Z,16.60
2018-11-05T13:15:37.429Z,16.60
2018-11-05T13:20:41.094Z,16.60
2018-11-05T13:25:45.807Z,16.70
2018-11-05T13:30:49.588Z,16.80
2018-11-05T13:35:53.252Z,17.00
2018-11-05T13:40:57.087Z,17.10
2018-11-05T13:46:01.239Z,17.10
2018-11-05T13:51:05.175Z,17.20
2018-11-05T13:56:08.860Z,17.10
2018-11-05T14:01:12.461Z,16.90
2018-11-05T14:06:16.551Z,16.60
2018-11-05T14:11:20.275Z,16.40
2018-11-05T14:16:23.944Z,16.40
2018-11-05T14:21:27.582Z,16.30
2018-11-05T14:26:31.250Z,16.30
2018-11-05T14:31:34.928Z,16.20
2018-11-05T14:36:38.989Z,16.10
2018-11-05T14:41:37.606Z,16.00
2018-11-05T14:46:36.216Z,16.00
2018-11-05T14:51:35.012Z,15.90
2018-11-05T14:56:33.626Z,15.80
2018-11-05T15:01:34.441Z,15.80
2018-11-05T15:06:33.168Z,15.70
2018-11-05T15:11:31.780Z,15.40
2018-11-05T15:16:30.395Z,15.20
2018-11-05T15:21:29.075Z,15.10
2018-11-05T15:26:27.823Z,15.00
2018-11-05T15:31:26.480Z,14.90
2018-11-05T15:36:25.092Z,14.70
2018-11-05T15:41:23.743Z,14.60
2018-11-05T15:46:22.551Z,14.50
2018-11-05T15:51:21.473Z,14.40
2018-11-05T15:56:20.025Z,14.20
2018-11-05T16:01:18.852Z,14.10
2018-11-05T16:06:17.788Z,14.10
2018-11-05T16:11:16.412Z,14.00
2018-11-05T16:16:15.221Z,13.90
2018-11-05T16:21:13.971Z,13.90
2018-11-05T16:26:13.292Z,13.90
2018-11-05T16:31:11.932Z,13.80
2018-11-05T16:36:10.623Z,13.80
2018-11-05T16:41:09.322Z,13.80
2018-11-05T16:46:08.434Z,13.80
2018-11-05T16:51:07.128Z,13.70
2018-11-05T16:56:05.846Z,13.70
2018-11-05T17:01:04.683Z,13.80
2018-11-05T17:06:03.274Z,13.80
2018-11-05T17:11:01.952Z,13.80
2018-11-05T17:16:01.201Z,13.80
2018-11-05T17:21:00.054Z,13.70
2018-11-05T17:25:58.803Z,13.70
2018-11-05T17:30:57.486Z,13.70
2018-11-05T17:35:56.286Z,13.80
2018-11-05T17:40:55.042Z,13.70
2018-11-05T17:45:53.937Z,13.80
2018-11-05T17:50:53.052Z,13.80
2018-11-05T17:55:51.892Z,13.80
2018-11-05T18:00:50.864Z,13.80
2018-11-05T18:05:49.540Z,13.70
2018-11-05T18:10:48.783Z,13.70
2018-11-05T18:15:47.800Z,13.60
2018-11-05T18:20:46.444Z,13.60
2018-11-05T18:25:45.189Z,13.70
2018-11-05T18:30:44.125Z,13.70
2018-11-05T18:35:42.984Z,13.60
2018-11-05T18:40:41.611Z,13.60
2018-11-05T18:45:40.359Z,13.70
2018-11-05T18:50:39.014Z,13.60
2018-11-05T18:55:37.758Z,13.50
2018-11-05T19:00:36.412Z,13.50
2018-11-05T19:05:35.169Z,13.50
2018-11-05T19:10:33.832Z,13.50
2018-11-05T19:15:32.544Z,13.40
2018-11-05T19:20:31.247Z,13.40
2018-11-05T19:25:30.637Z,13.40
2018-11-05T19:30:29.341Z,13.30
2018-11-05T19:35:27.956Z,13.20
2018-11-05T19:40:26.727Z,13.20
2018-11-05T19:45:25.848Z,13.20
2018-11-05T19:50:24.960Z,13.20
2018-11-05T19:55:23.718Z,13.10
2018-11-05T20:00:25.405Z,13.10
2018-11-05T20:05:24.000Z,13.10
2018-11-05T20:10:22.648Z,13.00
2018-11-05T20:15:21.291Z,13.00
2018-11-05T20:20:21.133Z,13.00
2018-11-05T20:25:19.928Z,12.90
2018-11-05T20:30:20.905Z,12.90
2018-11-05T20:35:19.506Z,12.80
2018-11-05T20:40:19.256Z,12.80
2018-11-05T20:45:18.635Z,12.70
2018-11-05T20:50:17.869Z,12.60
2018-11-05T20:55:17.473Z,12.70
2018-11-05T21:00:17.496Z,12.60
2018-11-05T21:05:16.127Z,12.60
2018-11-05T21:10:15.714Z,12.60
2018-11-05T21:15:17.619Z,12.60
2018-11-05T21:20:16.583Z,12.60
2018-11-05T21:25:15.236Z,12.60
2018-11-05T21:30:16.074Z,12.60
2018-11-05T21:35:16.337Z,12.60
2018-11-05T21:40:16.121Z,12.60
2018-11-05T21:45:15.436Z,12.50
2018-11-05T21:50:15.577Z,12.50
2018-11-05T21:55:14.116Z,12.60
2018-11-05T22:00:15.211Z,12.50
2018-11-05T22:05:14.426Z,12.50
2018-11-05T22:10:13.667Z,12.50
2018-11-05T22:15:12.371Z,12.50
2018-11-05T22:20:11.789Z,12.60
2018-11-05T22:25:11.099Z,12.60
2018-11-05T22:30:10.910Z,12.60
2018-11-05T22:35:10.547Z,12.60
2018-11-05T22:40:10.680Z,12.60
2018-11-05T22:45:10.398Z,12.60
2018-11-05T22:50:09.422Z,12.70
2018-11-05T22:55:09.516Z,12.70
2018-11-05T23:00:15.305Z,12.70
2018-11-05T23:05:14.314Z,12.80
2018-11-05T23:10:13.235Z,12.80
2018-11-05T23:15:12.026Z,12.80
2018-11-05T23:20:11.144Z,12.80
2018-11-05T23:25:09.836Z,12.80
2018-11-05T23:30:11.100Z,12.80
2018-11-05T23:35:10.544Z,12.80
2018-11-05T23:40:09.525Z,12.80
2018-11-05T23:45:10.492Z,12.80
2018-11-05T23:50:09.506Z,12.80
2018-11-05T23:55:09.132Z,12.70
